Time,TemperatureF,DewpointF,PressureIn,WindDirection,WindDirectionDegrees,WindSpeedMPH,WindSpeedGustMPH,Humidity,HourlyPrecipIn,Conditions,Clouds,dailyrainin,SoftwareType,DateUTC
2013-01-20 00:00:00,26.6,24.3,29.47,North,11,10.0,23.0,91,0.70,,---,0.83,VWS V14.01,2013-01-20 05:00:00,
2013-01-20 00:01:00,26.5,24.2,29.47,North,1,10.0,13.0,91,0.70,,---,0.00,VWS V14.01,2013-01-20 05:01:00,
2013-01-20 00:03:00,26.0,23.7,29.47,NNW,333,5.0,20.0,91,0.70,,---,0.00,VWS V14.01,2013-01-20 05:03:00,
2013-01-20 00:08:00,25.1,22.3,29.49,North,7,15.0,22.0,89,0.70,,---,0.00,VWS V14.01,2013-01-20 05:08:00,
2013-01-20 00:10:00,24.6,21.8,29.49,NW,326,9.0,25.0,89,0.70,,---,0.00,VWS V14.01,2013-01-20 05:10:00,
2013-01-20 00:13:00,24.3,21.5,29.49,NNW,329,7.0,17.0,89,0.70,,---,0.00,VWS V14.01,2013-01-20 05:13:00,
2013-01-20 00:18:00,23.9,20.3,29.50,North,9,24.0,27.0,86,0.70,,---,0.00,VWS V14.01,2013-01-20 05:18:00,
2013-01-20 00:20:00,23.8,20.0,29.50,NNW,347,13.0,27.0,85,0.70,,---,0.00,VWS V14.01,2013-01-20 05:20:00,
2013-01-20 00:23:00,23.5,19.1,29.51,NNW,346,9.0,25.0,83,0.70,,---,0.00,VWS V14.01,2013-01-20 05:23:00,
2013-01-20 00:28:00,23.0,18.3,29.50,NNE,12,12.0,25.0,82,0.70,,---,0.00,VWS V14.01,2013-01-20 05:28:00,
2013-01-20 00:30:00,22.9,18.0,29.50,North,351,11.0,25.0,81,0.70,,---,0.00,VWS V14.01,2013-01-20 05:30:00,
2013-01-20 00:33:00,22.9,18.2,29.51,NNW,335,2.0,15.0,82,0.00,,---,0.00,VWS V14.01,2013-01-20 05:33:00,
2013-01-20 00:38:00,22.6,17.7,29.51,NW,323,7.0,25.0,81,0.00,,---,0.00,VWS V14.01,2013-01-20 05:38:00,
2013-01-20 00:40:00,22.6,17.7,29.51,NNW,331,9.0,25.0,81,0.00,,---,0.00,VWS V14.01,2013-01-20 05:40:00,
2013-01-20 00:43:00,22.4,17.5,29.52,NNW,337,18.0,227.0,81,0.00,,---,0.00,VWS V14.01,2013-01-20 05:43:00,
2013-01-20 00:48:00,22.1,17.5,29.52,NNW,342,7.0,227.0,82,0.00,,---,0.00,VWS V14.01,2013-01-20 05:48:00,
2013-01-20 00:50:00,22.1,17.2,29.53,NW,308,14.0,227.0,81,0.00,,---,0.00,VWS V14.01,2013-01-20 05:50:00,
2013-01-20 00:53:00,21.9,17.3,29.53,North,3,11.0,21.0,82,0.00,,---,0.00,VWS V14.01,2013-01-20 05:53:00,
2013-01-20 00:58:00,21.9,16.7,29.54,West,276,6.0,21.0,80,0.00,,---,0.00,VWS V14.01,2013-01-20 05:58:00,
2013-01-20 01:00:00,21.8,16.6,29.54,NW,309,9.0,21.0,80,0.00,,---,0.00,VWS V14.01,2013-01-20 06:00:00,
2013-01-20 01:03:00,21.6,16.1,29.55,WNW,284,9.0,21.0,79,0.00,,---,0.00,VWS V14.01,2013-01-20 06:03:00,
2013-01-20 01:08:00,21.5,15.4,29.56,WNW,298,11.0,21.0,77,0.00,,---,0.00,VWS V14.01,2013-01-20 06:08:00,
2013-01-20 01:10:00,21.5,15.4,29.56,West,270,9.0,21.0,77,0.00,,---,0.00,VWS V14.01,2013-01-20 06:10:00,
2013-01-20 01:13:00,21.5,15.7,29.57,NW,326,3.0,15.0,78,0.00,,---,0.00,VWS V14.01,2013-01-20 06:13:00,
2013-01-20 01:18:00,21.3,15.5,29.57,WNW,292,3.0,21.0,78,0.00,,---,0.00,VWS V14.01,2013-01-20 06:18:00,
2013-01-20 01:20:00,21.2,15.7,29.57,NW,322,6.0,21.0,79,0.00,,---,0.00,VWS V14.01,2013-01-20 06:20:00,
2013-01-20 01:23:00,21.0,15.5,29.57,WNW,297,4.0,16.0,79,0.00,,---,0.00,VWS V14.01,2013-01-20 06:23:00,
2013-01-20 01:28:00,20.7,15.5,29.58,West,272,5.0,17.0,80,0.00,,---,0.00,VWS V14.01,2013-01-20 06:28:00,
2013-01-20 01:30:00,20.7,15.5,29.58,WNW,302,8.0,17.0,80,0.00,,---,0.00,VWS V14.01,2013-01-20 06:30:00,
2013-01-20 01:33:00,20.4,15.5,29.58,WNW,301,16.0,19.0,81,0.00,,---,0.00,VWS V14.01,2013-01-20 06:33:00,
2013-01-20 01:38:00,20.0,15.4,29.58,NW,318,9.0,19.0,82,0.00,,---,0.00,VWS V14.01,2013-01-20 06:38:00,
2013-01-20 01:40:00,20.0,15.4,29.58,NW,304,6.0,19.0,82,0.00,,---,0.00,VWS V14.01,2013-01-20 06:40:00,
2013-01-20 01:43:00,19.9,15.6,29.59,West,278,9.0,14.0,83,0.00,,---,0.00,VWS V14.01,2013-01-20 06:43:00,
2013-01-20 01:48:00,19.7,15.7,29.60,WNW,298,20.0,24.0,84,0.00,,---,0.00,VWS V14.01,2013-01-20 06:48:00,
2013-01-20 01:50:00,19.7,15.4,29.60,WNW,293,12.0,24.0,83,0.00,,---,0.00,VWS V14.01,2013-01-20 06:50:00,
2013-01-20 01:53:00,19.5,15.5,29.60,WNW,288,6.0,18.0,84,0.00,,---,0.00,VWS V14.01,2013-01-20 06:53:00,
2013-01-20 01:58:00,19.4,15.1,29.60,WSW,243,12.0,25.0,83,0.00,,---,0.00,VWS V14.01,2013-01-20 06:58:00,
2013-01-20 02:00:00,19.2,14.9,29.61,NNW,333,5.0,25.0,83,0.00,,---,0.00,VWS V14.01,2013-01-20 07:00:00,
2013-01-20 02:03:00,19.1,14.8,29.61,NNW,327,11.0,16.0,83,0.00,,---,0.00,VWS V14.01,2013-01-20 07:03:00,
2013-01-20 02:08:00,18.9,14.6,29.62,West,263,8.0,29.0,83,0.00,,---,0.00,VWS V14.01,2013-01-20 07:08:00,
2013-01-20 02:10:00,18.9,14.6,29.62,WNW,291,11.0,29.0,83,0.00,,---,0.00,VWS V14.01,2013-01-20 07:10:00,
2013-01-20 02:14:00,18.8,14.5,29.63,WNW,282,3.0,23.0,83,0.00,,---,0.00,VWS V14.01,2013-01-20 07:14:00,
2013-01-20 02:18:00,18.6,14.3,29.63,West,265,10.0,24.0,83,0.00,,---,0.00,VWS V14.01,2013-01-20 07:18:00,
2013-01-20 02:20:00,18.6,14.3,29.63,NW,304,14.0,24.0,83,0.00,,---,0.00,VWS V14.01,2013-01-20 07:20:00,
2013-01-20 02:23:00,18.6,14.3,29.64,WSW,252,4.0,19.0,83,0.00,,---,0.00,VWS V14.01,2013-01-20 07:23:00,
2013-01-20 02:29:00,18.6,14.0,29.65,West,275,11.0,20.0,82,0.00,,---,0.00,VWS V14.01,2013-01-20 07:29:00,
2013-01-20 02:30:00,18.5,13.9,29.65,NW,306,7.0,20.0,82,0.00,,---,0.00,VWS V14.01,2013-01-20 07:30:00,
2013-01-20 02:34:00,18.4,13.6,29.65,WNW,298,9.0,22.0,81,0.00,,---,0.00,VWS V14.01,2013-01-20 07:34:00,
2013-01-20 02:39:00,18.3,13.2,29.66,NNW,335,5.0,22.0,80,0.00,,---,0.00,VWS V14.01,2013-01-20 07:39:00,
2013-01-20 02:40:00,18.3,13.5,29.66,South,173,4.0,22.0,81,0.00,,---,0.00,VWS V14.01,2013-01-20 07:40:00,
2013-01-20 02:44:00,18.1,13.3,29.66,WNW,303,16.0,23.0,81,0.00,,---,0.00,VWS V14.01,2013-01-20 07:44:00,
2013-01-20 02:49:00,17.8,12.7,29.67,NW,304,16.0,31.0,80,0.00,,---,0.00,VWS V14.01,2013-01-20 07:49:00,
2013-01-20 02:50:00,17.8,12.7,29.67,NW,304,7.0,31.0,80,0.00,,---,0.00,VWS V14.01,2013-01-20 07:50:00,
2013-01-20 02:54:00,17.8,12.7,29.67,WSW,252,3.0,19.0,80,0.00,,---,0.00,VWS V14.01,2013-01-20 07:54:00,
2013-01-20 02:59:00,17.7,12.3,29.68,West,273,15.0,22.0,79,0.00,,---,0.00,VWS V14.01,2013-01-20 07:59:00,
2013-01-20 03:00:00,17.7,12.3,29.68,WNW,300,7.0,22.0,79,0.00,,---,0.00,VWS V14.01,2013-01-20 08:00:00,
2013-01-20 03:04:00,17.5,11.8,29.69,WNW,286,8.0,25.0,78,0.00,,---,0.00,VWS V14.01,2013-01-20 08:04:00,
2013-01-20 03:09:00,17.5,12.1,29.69,NW,316,12.0,25.0,79,0.00,,---,0.00,VWS V14.01,2013-01-20 08:09:00,
2013-01-20 03:10:00,17.5,11.8,29.69,West,279,8.0,25.0,78,0.00,,---,0.00,VWS V14.01,2013-01-20 08:10:00,
2013-01-20 03:14:00,17.5,12.1,29.69,WNW,283,8.0,17.0,79,0.00,,---,0.00,VWS V14.01,2013-01-20 08:14:00,
2013-01-20 03:19:00,17.3,11.6,29.70,NW,324,6.0,32.0,78,0.00,,---,0.00,VWS V14.01,2013-01-20 08:19:00,
2013-01-20 03:20:00,17.4,12.0,29.70,West,269,6.0,32.0,79,0.00,,---,0.00,VWS V14.01,2013-01-20 08:20:00,
2013-01-20 03:24:00,17.2,11.8,29.71,NW,322,4.0,25.0,79,0.00,,---,0.00,VWS V14.01,2013-01-20 08:24:00,
2013-01-20 03:29:00,17.0,11.6,29.71,West,276,12.0,25.0,79,0.00,,---,0.00,VWS V14.01,2013-01-20 08:29:00,
2013-01-20 03:30:00,16.9,11.5,29.71,NW,310,8.0,25.0,79,0.00,,---,0.00,VWS V14.01,2013-01-20 08:30:00,
2013-01-20 03:34:00,16.8,11.4,29.71,West,279,13.0,23.0,79,0.00,,---,0.00,VWS V14.01,2013-01-20 08:34:00,
2013-01-20 03:39:00,16.6,10.9,29.71,West,266,16.0,23.0,78,0.00,,---,0.00,VWS V14.01,2013-01-20 08:39:00,
2013-01-20 03:40:00,16.6,10.9,29.72,NNW,328,11.0,23.0,78,0.00,,---,0.00,VWS V14.01,2013-01-20 08:40:00,
2013-01-20 03:44:00,16.4,10.5,29.72,NW,322,7.0,22.0,77,0.00,,---,0.00,VWS V14.01,2013-01-20 08:44:00,
2013-01-20 03:49:00,16.2,10.0,29.72,WNW,299,11.0,22.0,76,0.00,,---,0.00,VWS V14.01,2013-01-20 08:49:00,
2013-01-20 03:50:00,16.2,10.0,29.73,WNW,303,5.0,22.0,76,0.00,,---,0.00,VWS V14.01,2013-01-20 08:50:00,
2013-01-20 03:54:00,16.1,10.2,29.73,NW,322,7.0,17.0,77,0.00,,---,0.00,VWS V14.01,2013-01-20 08:54:00,
2013-01-20 03:59:00,16.1,10.2,29.74,West,264,16.0,19.0,77,0.00,,---,0.00,VWS V14.01,2013-01-20 08:59:00,
2013-01-20 04:00:00,16.1,10.2,29.74,West,261,20.0,20.0,77,0.00,,---,0.00,VWS V14.01,2013-01-20 09:00:00,
2013-01-20 04:04:00,16.1,10.2,29.74,WNW,287,7.0,219.0,77,0.00,,---,0.00,VWS V14.01,2013-01-20 09:04:00,
2013-01-20 04:09:00,15.9,10.0,29.74,WNW,290,7.0,219.0,77,0.00,,---,0.00,VWS V14.01,2013-01-20 09:09:00,
2013-01-20 04:10:00,15.9,10.0,29.74,WNW,286,8.0,219.0,77,0.00,,---,0.00,VWS V14.01,2013-01-20 09:10:00,
2013-01-20 04:14:00,16.1,10.2,29.75,West,280,8.0,14.0,77,0.00,,---,0.00,VWS V14.01,2013-01-20 09:14:00,
2013-01-20 04:19:00,16.1,10.2,29.75,NW,307,7.0,29.0,77,0.00,,---,0.00,VWS V14.01,2013-01-20 09:19:00,
2013-01-20 04:20:00,16.1,10.5,29.75,WNW,300,7.0,29.0,78,0.00,,---,0.00,VWS V14.01,2013-01-20 09:20:00,
2013-01-20 04:24:00,15.9,10.3,29.75,NW,307,4.0,23.0,78,0.00,,---,0.00,VWS V14.01,2013-01-20 09:24:00,
2013-01-20 04:29:00,15.9,10.8,29.76,NW,323,10.0,23.0,80,0.00,,---,0.00,VWS V14.01,2013-01-20 09:29:00,
2013-01-20 04:30:00,15.9,10.8,29.76,WNW,287,8.0,23.0,80,0.00,,---,0.00,VWS V14.01,2013-01-20 09:30:00,
2013-01-20 04:34:00,15.9,11.4,29.76,NW,315,6.0,16.0,82,0.00,,---,0.00,VWS V14.01,2013-01-20 09:34:00,
2013-01-20 04:39:00,15.9,11.7,29.77,WNW,283,4.0,18.0,83,0.00,,---,0.00,VWS V14.01,2013-01-20 09:39:00,
2013-01-20 04:40:00,15.9,11.7,29.77,WNW,296,10.0,18.0,83,0.00,,---,0.00,VWS V14.01,2013-01-20 09:40:00,
2013-01-20 04:44:00,15.9,11.9,29.77,North,6,14.0,18.0,84,0.00,,---,0.00,VWS V14.01,2013-01-20 09:44:00,
2013-01-20 04:49:00,16.1,12.1,29.78,NNW,330,9.0,18.0,84,0.00,,---,0.00,VWS V14.01,2013-01-20 09:49:00,
2013-01-20 04:50:00,16.1,12.1,29.77,NW,325,5.0,18.0,84,0.00,,---,0.00,VWS V14.01,2013-01-20 09:50:00,
2013-01-20 04:54:00,16.2,12.2,29.78,NNW,327,7.0,19.0,84,0.00,,---,0.00,VWS V14.01,2013-01-20 09:54:00,
2013-01-20 04:59:00,16.2,11.4,29.78,NNW,343,16.0,22.0,81,0.00,,---,0.00,VWS V14.01,2013-01-20 09:59:00,
2013-01-20 05:00:00,16.2,11.4,29.78,NNW,335,10.0,25.0,81,0.00,,---,0.00,VWS V14.01,2013-01-20 10:00:00,
2013-01-20 05:04:00,16.1,11.0,29.79,NNW,342,12.0,27.0,80,0.00,,---,0.00,VWS V14.01,2013-01-20 10:04:00,
2013-01-20 05:09:00,16.2,10.6,29.79,NNW,334,8.0,27.0,78,0.00,,---,0.00,VWS V14.01,2013-01-20 10:09:00,
2013-01-20 05:10:00,16.2,10.3,29.80,NW,305,18.0,27.0,77,0.00,,---,0.00,VWS V14.01,2013-01-20 10:10:00,
2013-01-20 05:14:00,16.2,9.7,29.80,North,357,13.0,26.0,75,0.00,,---,0.00,VWS V14.01,2013-01-20 10:14:00,
2013-01-20 05:19:00,16.1,9.0,29.81,NNW,330,14.0,26.0,73,0.00,,---,0.00,VWS V14.01,2013-01-20 10:19:00,
2013-01-20 05:20:00,16.1,9.3,29.81,NNW,333,8.0,26.0,74,0.00,,---,0.00,VWS V14.01,2013-01-20 10:20:00,
2013-01-20 05:24:00,15.8,9.0,29.81,North,2,13.0,32.0,74,0.00,,---,0.00,VWS V14.01,2013-01-20 10:24:00,
2013-01-20 05:29:00,15.9,8.5,29.81,NW,319,9.0,32.0,72,0.00,,---,0.00,VWS V14.01,2013-01-20 10:29:00,
2013-01-20 05:30:00,15.9,8.5,29.82,North,357,16.0,32.0,72,0.00,,---,0.00,VWS V14.01,2013-01-20 10:30:00,
2013-01-20 05:34:00,15.9,8.5,29.82,North,349,10.0,27.0,72,0.00,,---,0.00,VWS V14.01,2013-01-20 10:34:00,
2013-01-20 05:39:00,15.8,8.7,29.83,North,5,14.0,27.0,73,0.00,,---,0.00,VWS V14.01,2013-01-20 10:39:00,
2013-01-20 05:40:00,15.8,8.4,29.83,NNW,329,11.0,27.0,72,0.00,,---,0.00,VWS V14.01,2013-01-20 10:40:00,
2013-01-20 05:44:00,15.6,8.5,29.83,NNW,333,14.0,21.0,73,0.00,,---,0.00,VWS V14.01,2013-01-20 10:44:00,
2013-01-20 05:49:00,15.6,8.8,29.84,NNW,338,12.0,25.0,74,0.00,,---,0.00,VWS V14.01,2013-01-20 10:49:00,
2013-01-20 05:50:00,15.6,8.8,29.84,NNW,329,16.0,25.0,74,0.00,,---,0.00,VWS V14.01,2013-01-20 10:50:00,
2013-01-20 05:54:00,15.6,7.9,29.84,NNW,332,16.0,31.0,71,0.00,,---,0.00,VWS V14.01,2013-01-20 10:54:00,
2013-01-20 05:59:00,15.6,7.6,29.85,NNW,339,17.0,31.0,70,0.00,,---,0.00,VWS V14.01,2013-01-20 10:59:00,
2013-01-20 06:00:00,15.6,7.3,29.85,NW,311,9.0,31.0,69,0.00,,---,0.00,VWS V14.01,2013-01-20 11:00:00,
2013-01-20 06:04:00,15.8,7.8,29.86,NNE,29,8.0,23.0,70,0.00,,---,0.00,VWS V14.01,2013-01-20 11:04:00,
2013-01-20 06:09:00,15.8,7.4,29.85,NNW,337,16.0,24.0,69,0.00,,---,0.00,VWS V14.01,2013-01-20 11:09:00,
2013-01-20 06:10:00,15.8,7.4,29.86,North,0,22.0,24.0,69,0.00,,---,0.00,VWS V14.01,2013-01-20 11:10:00,
2013-01-20 06:14:00,15.8,7.4,29.86,North,355,17.0,32.0,69,0.00,,---,0.00,VWS V14.01,2013-01-20 11:14:00,
2013-01-20 06:19:00,15.8,7.8,29.87,NNW,347,15.0,32.0,70,0.00,,---,0.00,VWS V14.01,2013-01-20 11:19:00,
2013-01-20 06:20:00,15.8,7.8,29.87,North,355,12.0,32.0,70,0.00,,---,0.00,VWS V14.01,2013-01-20 11:20:00,
2013-01-20 06:24:00,15.8,8.1,29.87,NW,318,8.0,13.0,71,0.00,,---,0.00,VWS V14.01,2013-01-20 11:24:00,
2013-01-20 06:29:00,15.6,8.5,29.88,North,3,5.0,15.0,73,0.00,,---,0.00,VWS V14.01,2013-01-20 11:29:00,
2013-01-20 06:30:00,15.6,8.5,29.88,North,351,9.0,15.0,73,0.00,,---,0.00,VWS V14.01,2013-01-20 11:30:00,
2013-01-20 06:34:00,15.6,8.5,29.88,North,349,10.0,20.0,73,0.00,,---,0.00,VWS V14.01,2013-01-20 11:34:00,
2013-01-20 06:39:00,15.8,8.1,29.88,North,355,11.0,24.0,71,0.00,,---,0.00,VWS V14.01,2013-01-20 11:39:00,
2013-01-20 06:40:00,15.8,8.1,29.88,NNW,348,7.0,24.0,71,0.00,,---,0.00,VWS V14.01,2013-01-20 11:40:00,
2013-01-20 06:44:00,15.8,7.8,29.89,North,349,9.0,27.0,70,0.00,,---,0.00,VWS V14.01,2013-01-20 11:44:00,
2013-01-20 06:49:00,15.8,7.1,29.89,NNW,346,17.0,27.0,68,0.00,,---,0.00,VWS V14.01,2013-01-20 11:49:00,
2013-01-20 06:50:00,15.8,7.1,29.89,NNW,347,16.0,27.0,68,0.00,,---,0.00,VWS V14.01,2013-01-20 11:50:00,
2013-01-20 06:54:00,15.8,6.8,29.89,North,352,6.0,17.0,67,0.00,,---,0.00,VWS V14.01,2013-01-20 11:54:00,
2013-01-20 06:59:00,15.8,7.1,29.90,North,359,12.0,21.0,68,0.00,,---,0.00,VWS V14.01,2013-01-20 11:59:00,
2013-01-20 07:00:00,15.8,7.1,29.90,NNE,12,5.0,21.0,68,0.00,,---,0.00,VWS V14.01,2013-01-20 12:00:00,
2013-01-20 07:04:00,15.8,7.1,29.90,NNW,342,17.0,24.0,68,0.00,,---,0.00,VWS V14.01,2013-01-20 12:04:00,
2013-01-20 07:09:00,15.4,7.4,29.91,NNW,339,15.0,24.0,70,0.00,,---,0.00,VWS V14.01,2013-01-20 12:09:00,
2013-01-20 07:10:00,15.4,7.4,29.91,NNW,342,11.0,24.0,70,0.00,,---,0.00,VWS V14.01,2013-01-20 12:10:00,
2013-01-20 07:14:00,15.3,7.6,29.91,NNE,21,10.0,24.0,71,0.00,,---,0.00,VWS V14.01,2013-01-20 12:14:00,
2013-01-20 07:19:00,15.1,7.1,29.92,North,7,11.0,24.0,70,0.00,,---,0.00,VWS V14.01,2013-01-20 12:19:00,
2013-01-20 07:20:00,15.1,7.1,29.92,North,352,15.0,24.0,70,0.00,,---,0.00,VWS V14.01,2013-01-20 12:20:00,
2013-01-20 07:24:00,15.1,7.1,29.92,North,349,8.0,17.0,70,0.00,,---,0.00,VWS V14.01,2013-01-20 12:24:00,
2013-01-20 07:29:00,15.1,7.1,29.92,NNW,348,12.0,18.0,70,0.00,,---,0.00,VWS V14.01,2013-01-20 12:29:00,
2013-01-20 07:30:00,15.1,7.1,29.92,North,350,13.0,18.0,70,0.00,,---,0.00,VWS V14.01,2013-01-20 12:30:00,
2013-01-20 07:34:00,15.1,7.1,29.93,North,358,7.0,23.0,70,0.00,,---,0.00,VWS V14.01,2013-01-20 12:34:00,
2013-01-20 07:39:00,15.1,7.1,29.93,NNW,331,9.0,23.0,70,0.00,,---,0.00,VWS V14.01,2013-01-20 12:39:00,
2013-01-20 07:40:00,15.1,7.1,29.93,NW,324,7.0,23.0,70,0.00,,---,0.00,VWS V14.01,2013-01-20 12:40:00,
2013-01-20 07:45:00,15.0,7.3,29.93,NNW,347,8.0,19.0,71,0.00,,---,0.00,VWS V14.01,2013-01-20 12:45:00,
2013-01-20 07:50:00,14.8,7.4,29.94,NW,325,13.0,19.0,72,0.00,,---,0.00,VWS V14.01,2013-01-20 12:50:00,
2013-01-20 07:55:00,14.6,7.5,29.94,NNW,329,10.0,19.0,73,0.00,,---,0.00,VWS V14.01,2013-01-20 12:55:00,
2013-01-20 07:59:00,14.6,6.9,29.95,North,352,7.0,19.0,71,0.00,,---,0.00,VWS V14.01,2013-01-20 12:59:00,
2013-01-20 08:00:00,14.6,6.9,29.95,North,353,7.0,19.0,71,0.00,,---,0.00,VWS V14.01,2013-01-20 13:00:00,
2013-01-20 08:05:00,14.6,6.6,29.96,NNW,338,8.0,18.0,70,0.00,,---,0.00,VWS V14.01,2013-01-20 13:05:00,
2013-01-20 08:10:00,14.8,6.5,29.96,WNW,293,8.0,18.0,69,0.00,,---,0.00,VWS V14.01,2013-01-20 13:10:00,
2013-01-20 08:15:00,14.6,6.6,29.97,North,357,6.0,12.0,70,0.00,,---,0.00,VWS V14.01,2013-01-20 13:15:00,
2013-01-20 08:20:00,14.6,6.6,29.97,NW,326,6.0,16.0,70,0.00,,---,0.00,VWS V14.01,2013-01-20 13:20:00,
2013-01-20 08:25:00,14.8,6.2,29.98,NNW,348,15.0,20.0,68,0.00,,---,0.00,VWS V14.01,2013-01-20 13:25:00,
2013-01-20 08:30:00,14.8,4.8,29.98,NNW,347,13.0,20.0,64,0.00,,---,0.00,VWS V14.01,2013-01-20 13:30:00,
2013-01-20 08:35:00,14.8,4.8,29.99,NW,313,7.0,19.0,64,0.00,,---,0.00,VWS V14.01,2013-01-20 13:35:00,
2013-01-20 08:40:00,14.8,5.2,29.99,NNW,337,14.0,22.0,65,0.00,,---,0.00,VWS V14.01,2013-01-20 13:40:00,
2013-01-20 08:45:00,14.8,5.5,29.99,North,7,8.0,21.0,66,0.00,,---,0.00,VWS V14.01,2013-01-20 13:45:00,
2013-01-20 08:50:00,14.5,5.9,29.99,NNW,346,15.0,21.0,68,0.00,,---,0.00,VWS V14.01,2013-01-20 13:50:00,
2013-01-20 08:55:00,14.6,5.7,30.00,North,349,10.0,19.0,67,0.00,,---,0.00,VWS V14.01,2013-01-20 13:55:00,
2013-01-20 09:00:00,14.8,6.2,30.00,North,9,12.0,19.0,68,0.00,,---,0.00,VWS V14.01,2013-01-20 14:00:00,
2013-01-20 09:05:00,14.8,6.2,30.01,North,1,9.0,14.0,68,0.00,,---,0.00,VWS V14.01,2013-01-20 14:05:00,
2013-01-20 09:10:00,14.8,5.8,30.01,NNW,343,8.0,9.0,67,0.00,,---,0.00,VWS V14.01,2013-01-20 14:10:00,
2013-01-20 09:15:00,14.9,5.9,30.01,North,352,16.0,19.0,67,0.00,,---,0.00,VWS V14.01,2013-01-20 14:15:00,
2013-01-20 09:20:00,15.1,6.1,30.01,WNW,285,3.0,4.0,67,0.00,,---,0.00,VWS V14.01,2013-01-20 14:20:00,
2013-01-20 09:25:00,14.9,5.9,30.02,NNW,343,12.0,17.0,67,0.00,,---,0.00,VWS V14.01,2013-01-20 14:25:00,
2013-01-20 09:30:00,14.6,6.6,30.02,North,0,9.0,10.0,70,0.00,,---,0.00,VWS V14.01,2013-01-20 14:30:00,
2013-01-20 09:35:00,14.5,7.1,30.02,NNW,342,7.0,14.0,72,0.00,,---,0.00,VWS V14.01,2013-01-20 14:35:00,
2013-01-20 09:40:00,14.1,7.7,30.03,North,349,7.0,12.0,75,0.00,,---,0.00,VWS V14.01,2013-01-20 14:40:00,
2013-01-20 09:45:00,14.0,8.1,30.04,North,3,13.0,15.0,77,0.00,,---,0.00,VWS V14.01,2013-01-20 14:45:00,
2013-01-20 09:50:00,14.0,8.4,30.04,NNW,329,7.0,7.0,78,0.00,,---,0.00,VWS V14.01,2013-01-20 14:50:00,
2013-01-20 09:55:00,13.8,8.5,30.04,NNW,334,4.0,13.0,79,0.00,,---,0.00,VWS V14.01,2013-01-20 14:55:00,
2013-01-20 10:00:00,13.8,8.5,30.05,NW,324,2.0,3.0,79,0.00,,---,0.00,VWS V14.01,2013-01-20 15:00:00,
2013-01-20 10:05:00,13.8,9.1,30.05,North,4,11.0,14.0,81,0.00,,---,0.00,VWS V14.01,2013-01-20 15:05:00,
2013-01-20 10:10:00,13.6,8.9,30.05,NNW,338,2.0,3.0,81,0.00,,---,0.00,VWS V14.01,2013-01-20 15:10:00,
2013-01-20 10:15:00,13.8,9.3,30.05,NNW,337,4.0,8.0,82,0.00,,---,0.00,VWS V14.01,2013-01-20 15:15:00,
2013-01-20 10:20:00,13.8,9.3,30.06,NW,322,9.0,9.0,82,0.00,,---,0.00,VWS V14.01,2013-01-20 15:20:00,
2013-01-20 10:25:00,14.0,9.3,30.06,WNW,297,4.0,10.0,81,0.00,,---,0.00,VWS V14.01,2013-01-20 15:25:00,
2013-01-20 10:30:00,14.1,9.4,30.06,NW,318,4.0,6.0,81,0.00,,---,0.00,VWS V14.01,2013-01-20 15:30:00,
2013-01-20 10:35:00,14.3,9.0,30.06,NNW,339,2.0,17.0,79,0.00,,---,0.00,VWS V14.01,2013-01-20 15:35:00,
2013-01-20 10:40:00,14.5,8.9,30.07,NW,318,4.0,10.0,78,0.00,,---,0.00,VWS V14.01,2013-01-20 15:40:00,
2013-01-20 10:45:00,14.6,8.4,30.07,NW,316,5.0,18.0,76,0.00,,---,0.00,VWS V14.01,2013-01-20 15:45:00,
2013-01-20 10:50:00,14.6,8.1,30.07,NW,310,8.0,11.0,75,0.00,,---,0.00,VWS V14.01,2013-01-20 15:50:00,
2013-01-20 10:55:00,14.5,7.4,30.07,NNW,334,3.0,13.0,73,0.00,,---,0.00,VWS V14.01,2013-01-20 15:55:00,
2013-01-20 11:00:00,14.4,7.3,30.07,West,266,4.0,14.0,73,0.00,,---,0.00,VWS V14.01,2013-01-20 16:00:00,
2013-01-20 11:05:00,14.5,7.1,30.07,NW,314,18.0,19.0,72,0.00,,---,0.00,VWS V14.01,2013-01-20 16:05:00,
2013-01-20 11:10:00,14.5,7.4,30.08,West,279,4.0,11.0,73,0.00,,---,0.00,VWS V14.01,2013-01-20 16:10:00,
2013-01-20 11:15:00,14.6,7.2,30.08,NW,316,5.0,12.0,72,0.00,,---,0.00,VWS V14.01,2013-01-20 16:15:00,
2013-01-20 11:20:00,14.5,6.8,30.08,West,281,4.0,12.0,71,0.00,,---,0.00,VWS V14.01,2013-01-20 16:20:00,
2013-01-20 11:25:00,14.2,6.8,30.08,NW,320,7.0,14.0,72,0.00,,---,0.00,VWS V14.01,2013-01-20 16:25:00,
2013-01-20 11:30:00,14.1,6.8,30.08,WNW,303,11.0,13.0,72,0.00,,---,0.00,VWS V14.01,2013-01-20 16:30:00,
2013-01-20 11:35:00,14.0,6.3,30.08,NW,323,6.0,14.0,71,0.00,,---,0.00,VWS V14.01,2013-01-20 16:35:00,
2013-01-20 11:40:00,14.1,6.4,30.08,WNW,292,9.0,11.0,71,0.00,,---,0.00,VWS V14.01,2013-01-20 16:40:00,
2013-01-20 11:45:00,14.2,6.2,30.08,NNW,336,8.0,13.0,70,0.00,,---,0.00,VWS V14.01,2013-01-20 16:45:00,
2013-01-20 11:50:00,14.1,6.1,30.08,North,0,1.0,8.0,70,0.00,,---,0.00,VWS V14.01,2013-01-20 16:50:00,
2013-01-20 11:55:00,14.0,6.3,30.08,NW,323,5.0,16.0,71,0.00,,---,0.00,VWS V14.01,2013-01-20 16:55:00,
2013-01-20 12:00:00,14.0,6.3,30.08,West,281,9.0,12.0,71,0.00,,---,0.00,VWS V14.01,2013-01-20 17:00:00,
2013-01-20 12:05:00,13.8,6.8,30.08,NNW,329,3.0,12.0,73,0.00,,---,0.00,VWS V14.01,2013-01-20 17:05:00,
2013-01-20 12:10:00,13.8,7.4,30.08,NNW,343,4.0,7.0,75,0.00,,---,0.00,VWS V14.01,2013-01-20 17:10:00,
2013-01-20 12:15:00,14.0,7.2,30.08,NNW,327,5.0,14.0,74,0.00,,---,0.00,VWS V14.01,2013-01-20 17:15:00,
2013-01-20 12:20:00,14.0,7.3,30.08,NNW,328,4.0,14.0,74,0.00,,---,0.00,VWS V14.01,2013-01-20 17:20:00,
2013-01-20 12:21:00,14.0,7.0,30.07,NW,320,1.0,8.0,73,0.00,,---,0.00,VWS V14.01,2013-01-20 17:21:00,
2013-01-20 12:26:00,14.1,7.1,30.08,West,271,5.0,10.0,73,0.00,,---,0.00,VWS V14.01,2013-01-20 17:26:00,
2013-01-20 12:30:00,13.8,6.8,30.07,North,349,5.0,16.0,73,0.00,,---,0.00,VWS V14.01,2013-01-20 17:30:00,
2013-01-20 12:31:00,13.8,6.8,30.07,North,353,3.0,9.0,73,0.00,,---,0.00,VWS V14.01,2013-01-20 17:31:00,
2013-01-20 12:35:00,13.8,6.8,30.07,NNW,328,5.0,12.0,73,0.00,,---,0.00,VWS V14.01,2013-01-20 17:35:00,
2013-01-20 12:40:00,13.8,6.8,30.07,North,355,6.0,19.0,73,0.00,,---,0.00,VWS V14.01,2013-01-20 17:40:00,
2013-01-20 12:41:00,13.8,6.8,30.07,NW,317,5.0,12.0,73,0.00,,---,0.00,VWS V14.01,2013-01-20 17:41:00,
2013-01-20 12:45:00,13.9,6.6,30.07,NW,319,7.0,13.0,72,0.00,,---,0.00,VWS V14.01,2013-01-20 17:45:00,
2013-01-20 12:50:00,13.8,6.8,30.07,NW,310,3.0,17.0,73,0.00,,---,0.00,VWS V14.01,2013-01-20 17:50:00,
2013-01-20 12:51:00,13.8,6.8,30.07,West,261,8.0,9.0,73,0.00,,---,0.00,VWS V14.01,2013-01-20 17:51:00,
2013-01-20 12:56:00,13.8,6.5,30.07,WNW,296,3.0,13.0,72,0.00,,---,0.00,VWS V14.01,2013-01-20 17:56:00,
2013-01-20 13:00:00,13.8,6.2,30.07,WNW,300,2.0,13.0,71,0.00,,---,0.00,VWS V14.01,2013-01-20 18:00:00,
2013-01-20 13:01:00,13.8,6.8,30.08,NW,326,7.0,16.0,73,0.00,,---,0.00,VWS V14.01,2013-01-20 18:01:00,
2013-01-20 13:06:00,13.8,6.8,30.08,NNW,339,8.0,16.0,73,0.00,,---,0.00,VWS V14.01,2013-01-20 18:06:00,
2013-01-20 13:10:00,13.8,6.8,30.08,WNW,282,4.0,16.0,73,0.00,,---,0.00,VWS V14.01,2013-01-20 18:10:00,
2013-01-20 13:11:00,13.8,7.1,30.08,NW,311,2.0,8.0,74,0.00,,---,0.00,VWS V14.01,2013-01-20 18:11:00,
2013-01-20 13:16:00,14.0,7.2,30.08,North,359,3.0,9.0,74,0.00,,---,0.00,VWS V14.01,2013-01-20 18:16:00,
2013-01-20 13:20:00,14.0,6.9,30.07,WNW,295,4.0,10.0,73,0.00,,---,0.00,VWS V14.01,2013-01-20 18:20:00,
2013-01-20 13:21:00,14.0,7.0,30.08,NNW,331,5.0,5.0,73,0.00,,---,0.00,VWS V14.01,2013-01-20 18:21:00,
2013-01-20 13:26:00,14.0,6.3,30.08,NNW,328,6.0,15.0,71,0.00,,---,0.00,VWS V14.01,2013-01-20 18:26:00,
2013-01-20 13:30:00,14.0,6.3,30.08,West,276,4.0,15.0,71,0.00,,---,0.00,VWS V14.01,2013-01-20 18:30:00,
2013-01-20 13:31:00,14.0,6.7,30.08,WNW,303,9.0,11.0,72,0.00,,---,0.00,VWS V14.01,2013-01-20 18:31:00,
2013-01-20 13:36:00,14.0,6.7,30.08,WNW,298,2.0,11.0,72,0.00,,---,0.00,VWS V14.01,2013-01-20 18:36:00,
2013-01-20 13:40:00,14.0,6.3,30.08,NW,318,5.0,12.0,71,0.00,,---,0.00,VWS V14.01,2013-01-20 18:40:00,
2013-01-20 13:41:00,14.0,6.3,30.08,North,349,5.0,9.0,71,0.00,,---,0.00,VWS V14.01,2013-01-20 18:41:00,
2013-01-20 13:46:00,14.0,6.0,30.08,NNW,327,7.0,15.0,70,0.00,,---,0.00,VWS V14.01,2013-01-20 18:46:00,
2013-01-20 13:50:00,13.8,5.8,30.08,North,355,5.0,15.0,70,0.00,,---,0.00,VWS V14.01,2013-01-20 18:50:00,
2013-01-20 13:51:00,13.8,5.8,30.08,NW,314,7.0,16.0,70,0.00,,---,0.00,VWS V14.01,2013-01-20 18:51:00,
2013-01-20 13:56:00,13.6,6.0,30.08,North,10,2.0,16.0,71,0.00,,---,0.00,VWS V14.01,2013-01-20 18:56:00,
2013-01-20 14:00:00,13.6,6.0,30.08,NNW,332,8.0,16.0,71,0.00,,---,0.00,VWS V14.01,2013-01-20 19:00:00,
2013-01-20 14:01:00,13.5,5.9,30.09,NNW,334,9.0,14.0,71,0.00,,---,0.00,VWS V14.01,2013-01-20 19:01:00,
2013-01-20 14:06:00,13.6,5.7,30.09,NW,318,2.0,14.0,70,0.00,,---,0.00,VWS V14.01,2013-01-20 19:06:00,
2013-01-20 14:10:00,13.8,5.5,30.09,NW,310,9.0,14.0,69,0.00,,---,0.00,VWS V14.01,2013-01-20 19:10:00,
2013-01-20 14:11:00,13.8,5.5,30.09,NW,320,10.0,13.0,69,0.00,,---,0.00,VWS V14.01,2013-01-20 19:11:00,
2013-01-20 14:16:00,13.8,5.2,30.09,WNW,285,9.0,13.0,68,0.00,,---,0.00,VWS V14.01,2013-01-20 19:16:00,
2013-01-20 14:20:00,14.0,5.4,30.09,NW,317,14.0,14.0,68,0.00,,---,0.00,VWS V14.01,2013-01-20 19:20:00,
2013-01-20 14:21:00,13.8,5.2,30.09,WNW,302,9.0,14.0,68,0.00,,---,0.00,VWS V14.01,2013-01-20 19:21:00,
2013-01-20 14:26:00,13.6,4.7,30.09,North,354,5.0,17.0,67,0.00,,---,0.00,VWS V14.01,2013-01-20 19:26:00,
2013-01-20 14:30:00,13.6,4.7,30.09,NNW,341,9.0,17.0,67,0.00,,---,0.00,VWS V14.01,2013-01-20 19:30:00,
2013-01-20 14:31:00,13.6,4.4,30.09,North,349,7.0,16.0,66,0.00,,---,0.00,VWS V14.01,2013-01-20 19:31:00,
2013-01-20 14:36:00,13.5,4.6,30.09,NW,326,7.0,16.0,67,0.00,,---,0.00,VWS V14.01,2013-01-20 19:36:00,
2013-01-20 14:40:00,13.5,4.3,30.09,NW,317,5.0,16.0,66,0.00,,---,0.00,VWS V14.01,2013-01-20 19:40:00,
2013-01-20 14:41:00,13.5,4.6,30.09,WNW,301,5.0,7.0,67,0.00,,---,0.00,VWS V14.01,2013-01-20 19:41:00,
2013-01-20 14:46:00,13.5,3.9,30.09,NW,321,5.0,14.0,65,0.00,,---,0.00,VWS V14.01,2013-01-20 19:46:00,
2013-01-20 14:50:00,13.6,4.0,30.09,NNW,336,16.0,16.0,65,0.00,,---,0.00,VWS V14.01,2013-01-20 19:50:00,
2013-01-20 14:51:00,13.6,4.0,30.10,NNW,343,5.0,16.0,65,0.00,,---,0.00,VWS V14.01,2013-01-20 19:51:00,
2013-01-20 14:56:00,13.6,4.0,30.10,NW,306,6.0,16.0,65,0.00,,---,0.00,VWS V14.01,2013-01-20 19:56:00,
2013-01-20 15:00:00,13.5,3.9,30.10,NW,313,5.0,16.0,65,0.00,,---,0.00,VWS V14.01,2013-01-20 20:00:00,
2013-01-20 15:01:00,13.6,4.4,30.10,West,277,13.0,13.0,66,0.00,,---,0.00,VWS V14.01,2013-01-20 20:01:00,
2013-01-20 15:06:00,13.5,3.3,30.10,NW,309,2.0,16.0,63,0.00,,---,0.00,VWS V14.01,2013-01-20 20:06:00,
2013-01-20 15:10:00,13.7,3.5,30.10,WNW,285,4.0,16.0,63,0.00,,---,0.00,VWS V14.01,2013-01-20 20:10:00,
2013-01-20 15:11:00,13.6,3.4,30.10,WNW,303,7.0,13.0,63,0.00,,---,0.00,VWS V14.01,2013-01-20 20:11:00,
2013-01-20 15:16:00,13.6,3.4,30.10,WNW,300,7.0,13.0,63,0.00,,---,0.00,VWS V14.01,2013-01-20 20:16:00,
2013-01-20 15:20:00,13.6,3.0,30.10,WNW,289,4.0,13.0,62,0.00,,---,0.00,VWS V14.01,2013-01-20 20:20:00,
2013-01-20 15:21:00,13.7,3.1,30.10,North,2,9.0,9.0,62,0.00,,---,0.00,VWS V14.01,2013-01-20 20:21:00,
2013-01-20 15:26:00,13.5,2.9,30.11,North,349,10.0,15.0,62,0.00,,---,0.00,VWS V14.01,2013-01-20 20:26:00,
2013-01-20 15:30:00,13.5,2.9,30.11,NW,325,7.0,15.0,62,0.00,,---,0.00,VWS V14.01,2013-01-20 20:30:00,
2013-01-20 15:31:00,13.5,2.9,30.11,NW,315,5.0,12.0,62,0.00,,---,0.00,VWS V14.01,2013-01-20 20:31:00,
2013-01-20 15:36:00,13.5,2.9,30.11,NW,315,2.0,12.0,62,0.00,,---,0.00,VWS V14.01,2013-01-20 20:36:00,
2013-01-20 15:40:00,13.5,2.9,30.11,West,274,5.0,12.0,62,0.00,,---,0.00,VWS V14.01,2013-01-20 20:40:00,
2013-01-20 15:41:00,13.5,2.9,30.11,WNW,296,5.0,9.0,62,0.00,,---,0.00,VWS V14.01,2013-01-20 20:41:00,
2013-01-20 15:46:00,13.5,3.3,30.11,North,357,4.0,11.0,63,0.00,,---,0.00,VWS V14.01,2013-01-20 20:46:00,
2013-01-20 15:50:00,13.3,3.8,30.11,NW,309,9.0,11.0,65,0.00,,---,0.00,VWS V14.01,2013-01-20 20:50:00,
2013-01-20 15:51:00,13.3,3.8,30.11,NW,322,6.0,9.0,65,0.00,,---,0.00,VWS V14.01,2013-01-20 20:51:00,
2013-01-20 15:57:00,13.1,3.9,30.11,WNW,282,4.0,16.0,66,0.00,,---,0.00,VWS V14.01,2013-01-20 20:57:00,
2013-01-20 16:00:00,13.0,4.1,30.11,NW,304,6.0,16.0,67,0.00,,---,0.00,VWS V14.01,2013-01-20 21:00:00,
2013-01-20 16:02:00,13.0,4.4,30.11,North,349,6.0,7.0,68,0.00,,---,0.00,VWS V14.01,2013-01-20 21:02:00,
2013-01-20 16:07:00,13.0,4.1,30.11,NW,315,7.0,13.0,67,0.00,,---,0.00,VWS V14.01,2013-01-20 21:07:00,
2013-01-20 16:10:00,13.0,4.1,30.11,WNW,283,0.0,13.0,67,0.00,,---,0.00,VWS V14.01,2013-01-20 21:10:00,
2013-01-20 16:12:00,13.0,4.4,30.11,WNW,285,4.0,11.0,68,0.00,,---,0.00,VWS V14.01,2013-01-20 21:12:00,
2013-01-20 16:17:00,13.0,4.1,30.12,NNW,330,3.0,11.0,67,0.00,,---,0.00,VWS V14.01,2013-01-20 21:17:00,
2013-01-20 16:20:00,13.1,4.2,30.11,SW,227,0.0,11.0,67,0.00,,---,0.00,VWS V14.01,2013-01-20 21:20:00,
2013-01-20 16:22:00,13.2,4.6,30.12,NW,316,1.0,11.0,68,0.00,,---,0.00,VWS V14.01,2013-01-20 21:22:00,
2013-01-20 16:27:00,13.0,4.8,30.12,WNW,289,4.0,12.0,69,0.00,,---,0.00,VWS V14.01,2013-01-20 21:27:00,
2013-01-20 16:30:00,13.0,4.8,30.12,NW,321,3.0,12.0,69,0.00,,---,0.00,VWS V14.01,2013-01-20 21:30:00,
2013-01-20 16:32:00,12.8,4.9,30.11,West,281,2.0,6.0,70,0.00,,---,0.00,VWS V14.01,2013-01-20 21:32:00,
2013-01-20 16:37:00,12.8,4.9,30.11,WNW,283,2.0,9.0,70,0.00,,---,0.00,VWS V14.01,2013-01-20 21:37:00,
2013-01-20 16:40:00,12.8,4.9,30.11,NW,321,4.0,9.0,70,0.00,,---,0.00,VWS V14.01,2013-01-20 21:40:00,
2013-01-20 16:42:00,12.8,4.9,30.11,NW,308,2.0,6.0,70,0.00,,---,0.00,VWS V14.01,2013-01-20 21:42:00,
2013-01-20 16:47:00,13.0,4.8,30.12,WSW,257,6.0,7.0,69,0.00,,---,0.00,VWS V14.01,2013-01-20 21:47:00,
2013-01-20 16:50:00,13.0,4.8,30.12,WNW,293,7.0,7.0,69,0.00,,---,0.00,VWS V14.01,2013-01-20 21:50:00,
2013-01-20 16:53:00,13.0,4.8,30.11,NW,315,5.0,10.0,69,0.00,,---,0.00,VWS V14.01,2013-01-20 21:53:00,
2013-01-20 16:58:00,13.0,4.8,30.11,NW,314,7.0,10.0,69,0.00,,---,0.00,VWS V14.01,2013-01-20 21:58:00,
2013-01-20 17:00:00,13.0,4.4,30.12,West,274,2.0,10.0,68,0.00,,---,0.00,VWS V14.01,2013-01-20 22:00:00,
2013-01-20 17:03:00,13.0,4.4,30.12,WNW,297,6.0,6.0,68,0.00,,---,0.00,VWS V14.01,2013-01-20 22:03:00,
2013-01-20 17:08:00,13.0,3.8,30.12,WNW,283,3.0,11.0,66,0.00,,---,0.00,VWS V14.01,2013-01-20 22:08:00,
2013-01-20 17:10:00,13.0,3.8,30.12,North,355,1.0,11.0,66,0.00,,---,0.00,VWS V14.01,2013-01-20 22:10:00,
2013-01-20 17:13:00,13.2,3.7,30.12,NW,321,1.0,9.0,65,0.00,,---,0.00,VWS V14.01,2013-01-20 22:13:00,
2013-01-20 17:18:00,13.2,3.3,30.12,North,355,7.0,9.0,64,0.00,,---,0.00,VWS V14.01,2013-01-20 22:18:00,
2013-01-20 17:20:00,13.2,3.3,30.12,NW,323,1.0,9.0,64,0.00,,---,0.00,VWS V14.01,2013-01-20 22:20:00,
2013-01-20 17:23:00,13.2,3.0,30.12,West,280,3.0,7.0,63,0.00,,---,0.00,VWS V14.01,2013-01-20 22:23:00,
2013-01-20 17:28:00,13.2,3.0,30.12,NNW,327,3.0,7.0,63,0.00,,---,0.00,VWS V14.01,2013-01-20 22:28:00,
2013-01-20 17:30:00,13.2,3.0,30.12,NW,326,2.0,7.0,63,0.00,,---,0.00,VWS V14.01,2013-01-20 22:30:00,
2013-01-20 17:33:00,13.0,3.1,30.12,WNW,290,2.0,7.0,64,0.00,,---,0.00,VWS V14.01,2013-01-20 22:33:00,
2013-01-20 17:38:00,13.0,3.5,30.12,WNW,296,7.0,8.0,65,0.00,,---,0.00,VWS V14.01,2013-01-20 22:38:00,
2013-01-20 17:40:00,13.0,3.5,30.12,WSW,253,1.0,8.0,65,0.00,,---,0.00,VWS V14.01,2013-01-20 22:40:00,
2013-01-20 17:43:00,13.0,3.5,30.12,West,279,3.0,5.0,65,0.00,,---,0.00,VWS V14.01,2013-01-20 22:43:00,
2013-01-20 17:48:00,13.0,3.8,30.12,WSW,256,4.0,6.0,66,0.00,,---,0.00,VWS V14.01,2013-01-20 22:48:00,
2013-01-20 17:50:00,13.0,3.5,30.12,West,270,7.0,7.0,65,0.00,,---,0.00,VWS V14.01,2013-01-20 22:50:00,
2013-01-20 17:53:00,13.0,3.8,30.12,NNW,332,5.0,8.0,66,0.00,,---,0.00,VWS V14.01,2013-01-20 22:53:00,
2013-01-20 17:58:00,13.0,3.8,30.12,WNW,295,0.0,9.0,66,0.00,,---,0.00,VWS V14.01,2013-01-20 22:58:00,
2013-01-20 18:00:00,13.0,3.8,30.12,NNW,347,2.0,9.0,66,0.00,,---,0.00,VWS V14.01,2013-01-20 23:00:00,
2013-01-20 18:03:00,13.0,3.5,30.12,NW,306,4.0,6.0,65,0.00,,---,0.00,VWS V14.01,2013-01-20 23:03:00,
2013-01-20 18:08:00,13.0,3.1,30.12,WNW,293,3.0,7.0,64,0.00,,---,0.00,VWS V14.01,2013-01-20 23:08:00,
2013-01-20 18:10:00,13.0,3.5,30.12,NW,316,3.0,8.0,65,0.00,,---,0.00,VWS V14.01,2013-01-20 23:10:00,
2013-01-20 18:13:00,13.0,3.1,30.12,WNW,292,2.0,7.0,64,0.00,,---,0.00,VWS V14.01,2013-01-20 23:13:00,
2013-01-20 18:18:00,13.0,2.8,30.12,West,280,3.0,8.0,63,0.00,,---,0.00,VWS V14.01,2013-01-20 23:18:00,
2013-01-20 18:20:00,13.0,2.8,30.12,West,276,3.0,8.0,63,0.00,,---,0.00,VWS V14.01,2013-01-20 23:20:00,
2013-01-20 18:23:00,13.0,2.8,30.12,West,276,1.0,5.0,63,0.00,,---,0.00,VWS V14.01,2013-01-20 23:23:00,
2013-01-20 18:28:00,12.8,2.9,30.12,NW,317,8.0,10.0,64,0.00,,---,0.00,VWS V14.01,2013-01-20 23:28:00,
2013-01-20 18:30:00,12.8,3.6,30.12,West,259,4.0,10.0,66,0.00,,---,0.00,VWS V14.01,2013-01-20 23:30:00,
2013-01-20 18:33:00,12.6,3.7,30.12,WNW,302,2.0,6.0,67,0.00,,---,0.00,VWS V14.01,2013-01-20 23:33:00,
2013-01-20 18:38:00,12.5,4.3,30.12,NW,304,3.0,7.0,69,0.00,,---,0.00,VWS V14.01,2013-01-20 23:38:00,
2013-01-20 18:40:00,12.5,4.6,30.12,WNW,288,4.0,7.0,70,0.00,,---,0.00,VWS V14.01,2013-01-20 23:40:00,
2013-01-20 18:43:00,12.3,4.7,30.13,WSW,257,0.0,7.0,71,0.00,,---,0.00,VWS V14.01,2013-01-20 23:43:00,
2013-01-20 18:48:00,12.3,5.0,30.12,NNW,327,2.0,7.0,72,0.00,,---,0.00,VWS V14.01,2013-01-20 23:48:00,
2013-01-20 18:50:00,12.2,5.2,30.13,NW,318,0.0,7.0,73,0.00,,---,0.00,VWS V14.01,2013-01-20 23:50:00,
2013-01-20 18:53:00,12.1,5.1,30.12,NW,318,1.0,4.0,73,0.00,,---,0.00,VWS V14.01,2013-01-20 23:53:00,
2013-01-20 18:58:00,12.1,5.1,30.13,NW,317,1.0,6.0,73,0.00,,---,0.00,VWS V14.01,2013-01-20 23:58:00,
2013-01-20 19:00:00,12.3,5.3,30.13,NW,317,2.0,6.0,73,0.00,,---,0.00,VWS V14.01,2013-01-21 00:00:00,
2013-01-20 19:03:00,12.3,5.0,30.13,NW,317,1.0,3.0,72,0.00,,---,0.00,VWS V14.01,2013-01-21 00:03:00,
2013-01-20 19:08:00,12.3,5.0,30.13,West,279,4.0,6.0,72,0.00,,---,0.00,VWS V14.01,2013-01-21 00:08:00,
2013-01-20 19:10:00,12.3,5.0,30.12,WNW,299,1.0,7.0,72,0.00,,---,0.00,VWS V14.01,2013-01-21 00:10:00,
2013-01-20 19:13:00,12.5,5.2,30.12,North,357,2.0,6.0,72,0.00,,---,0.00,VWS V14.01,2013-01-21 00:13:00,
2013-01-20 19:18:00,12.5,4.9,30.12,NW,305,0.0,6.0,71,0.00,,---,0.00,VWS V14.01,2013-01-21 00:18:00,
2013-01-20 19:20:00,12.5,4.6,30.12,NW,305,3.0,6.0,70,0.00,,---,0.00,VWS V14.01,2013-01-21 00:20:00,
2013-01-20 19:23:00,12.5,4.6,30.13,WNW,299,4.0,6.0,70,0.00,,---,0.00,VWS V14.01,2013-01-21 00:23:00,
2013-01-20 19:28:00,12.7,4.5,30.13,NW,313,1.0,9.0,69,0.00,,---,0.00,VWS V14.01,2013-01-21 00:28:00,
2013-01-20 19:30:00,12.7,4.5,30.13,NW,313,1.0,9.0,69,0.00,,---,0.00,VWS V14.01,2013-01-21 00:30:00,
2013-01-20 19:33:00,12.6,4.4,30.13,North,353,3.0,6.0,69,0.00,,---,0.00,VWS V14.01,2013-01-21 00:33:00,
2013-01-20 19:38:00,12.6,4.7,30.12,NW,323,7.0,7.0,70,0.00,,---,0.00,VWS V14.01,2013-01-21 00:38:00,
2013-01-20 19:40:00,12.5,4.6,30.12,NW,318,2.0,8.0,70,0.00,,---,0.00,VWS V14.01,2013-01-21 00:40:00,
2013-01-20 19:43:00,12.5,4.6,30.12,NNW,340,3.0,5.0,70,0.00,,---,0.00,VWS V14.01,2013-01-21 00:43:00,
2013-01-20 19:48:00,12.5,5.2,30.13,NNW,346,2.0,5.0,72,0.00,,---,0.00,VWS V14.01,2013-01-21 00:48:00,
2013-01-20 19:50:00,12.5,4.9,30.12,NNW,346,1.0,5.0,71,0.00,,---,0.00,VWS V14.01,2013-01-21 00:50:00,
2013-01-20 19:53:00,12.5,5.2,30.12,NNW,338,5.0,8.0,72,0.00,,---,0.00,VWS V14.01,2013-01-21 00:53:00,
2013-01-20 19:58:00,12.5,5.2,30.12,North,351,2.0,8.0,72,0.00,,---,0.00,VWS V14.01,2013-01-21 00:58:00,
2013-01-20 20:00:00,12.3,5.3,30.12,WNW,297,5.0,8.0,73,0.00,,---,0.00,VWS V14.01,2013-01-21 01:00:00,
2013-01-20 20:03:00,12.3,5.3,30.12,NW,324,5.0,8.0,73,0.00,,---,0.00,VWS V14.01,2013-01-21 01:03:00,
2013-01-20 20:08:00,12.1,5.7,30.12,North,356,2.0,8.0,75,0.00,,---,0.00,VWS V14.01,2013-01-21 01:08:00,
2013-01-20 20:10:00,12.2,5.8,30.12,NW,324,5.0,8.0,75,0.00,,---,0.00,VWS V14.01,2013-01-21 01:10:00,
2013-01-20 20:13:00,12.1,5.7,30.12,NW,326,5.0,8.0,75,0.00,,---,0.00,VWS V14.01,2013-01-21 01:13:00,
2013-01-20 20:18:00,12.1,5.7,30.12,North,5,6.0,10.0,75,0.00,,---,0.00,VWS V14.01,2013-01-21 01:18:00,
2013-01-20 20:20:00,12.2,5.8,30.12,North,351,11.0,11.0,75,0.00,,---,0.00,VWS V14.01,2013-01-21 01:20:00,
2013-01-20 20:23:00,12.2,5.5,30.12,NNW,344,9.0,11.0,74,0.00,,---,0.00,VWS V14.01,2013-01-21 01:23:00,
2013-01-20 20:28:00,12.1,5.1,30.11,NW,323,2.0,11.0,73,0.00,,---,0.00,VWS V14.01,2013-01-21 01:28:00,
2013-01-20 20:30:00,12.1,5.1,30.11,North,350,2.0,11.0,73,0.00,,---,0.00,VWS V14.01,2013-01-21 01:30:00,
2013-01-20 20:34:00,12.1,5.1,30.11,NNW,343,5.0,8.0,73,0.00,,---,0.00,VWS V14.01,2013-01-21 01:34:00,
2013-01-20 20:39:00,12.3,4.7,30.11,NNW,333,4.0,8.0,71,0.00,,---,0.00,VWS V14.01,2013-01-21 01:39:00,
2013-01-20 20:40:00,12.3,4.7,30.11,NNW,333,3.0,8.0,71,0.00,,---,0.00,VWS V14.01,2013-01-21 01:40:00,
2013-01-20 20:44:00,12.3,4.7,30.11,North,1,2.0,6.0,71,0.00,,---,0.00,VWS V14.01,2013-01-21 01:44:00,
2013-01-20 20:49:00,12.5,4.0,30.11,NNW,331,5.0,8.0,68,0.00,,---,0.00,VWS V14.01,2013-01-21 01:49:00,
2013-01-20 20:50:00,12.5,4.0,30.11,NNW,346,5.0,8.0,68,0.00,,---,0.00,VWS V14.01,2013-01-21 01:50:00,
2013-01-20 20:54:00,12.6,3.7,30.11,NNW,340,3.0,7.0,67,0.00,,---,0.00,VWS V14.01,2013-01-21 01:54:00,
2013-01-20 20:59:00,12.6,3.1,30.11,North,351,3.0,11.0,65,0.00,,---,0.00,VWS V14.01,2013-01-21 01:59:00,
2013-01-20 21:00:00,12.6,3.1,30.11,NNW,331,3.0,11.0,65,0.00,,---,0.00,VWS V14.01,2013-01-21 02:00:00,
2013-01-20 21:04:00,12.5,3.6,30.11,NNW,332,4.0,8.0,67,0.00,,---,0.00,VWS V14.01,2013-01-21 02:04:00,
2013-01-20 21:09:00,12.3,3.5,30.11,North,355,5.0,10.0,67,0.00,,---,0.00,VWS V14.01,2013-01-21 02:09:00,
2013-01-20 21:10:00,12.3,3.5,30.11,NNW,337,4.0,10.0,67,0.00,,---,0.00,VWS V14.01,2013-01-21 02:10:00,
2013-01-20 21:14:00,12.3,3.8,30.10,North,356,4.0,9.0,68,0.00,,---,0.00,VWS V14.01,2013-01-21 02:14:00,
2013-01-20 21:19:00,12.1,3.9,30.10,NNW,342,5.0,10.0,69,0.00,,---,0.00,VWS V14.01,2013-01-21 02:19:00,
2013-01-20 21:20:00,12.1,3.9,30.10,NNW,334,4.0,10.0,69,0.00,,---,0.00,VWS V14.01,2013-01-21 02:20:00,
2013-01-20 21:24:00,12.1,4.2,30.10,NNW,336,5.0,13.0,70,0.00,,---,0.00,VWS V14.01,2013-01-21 02:24:00,
2013-01-20 21:29:00,12.0,4.1,30.10,North,4,4.0,13.0,70,0.00,,---,0.00,VWS V14.01,2013-01-21 02:29:00,
2013-01-20 21:30:00,12.0,4.1,30.10,North,0,2.0,13.0,70,0.00,,---,0.00,VWS V14.01,2013-01-21 02:30:00,
2013-01-20 21:34:00,11.6,4.0,30.10,NNW,335,3.0,7.0,71,0.00,,---,0.00,VWS V14.01,2013-01-21 02:34:00,
2013-01-20 21:39:00,11.6,4.0,30.10,North,357,4.0,9.0,71,0.00,,---,0.00,VWS V14.01,2013-01-21 02:39:00,
2013-01-20 21:40:00,11.6,4.0,30.10,North,358,2.0,9.0,71,0.00,,---,0.00,VWS V14.01,2013-01-21 02:40:00,
2013-01-20 21:44:00,11.5,3.9,30.10,North,357,2.0,5.0,71,0.00,,---,0.00,VWS V14.01,2013-01-21 02:44:00,
2013-01-20 21:49:00,11.6,3.7,30.10,North,359,1.0,6.0,70,0.00,,---,0.00,VWS V14.01,2013-01-21 02:49:00,
2013-01-20 21:50:00,11.6,3.7,30.10,North,359,2.0,6.0,70,0.00,,---,0.00,VWS V14.01,2013-01-21 02:50:00,
2013-01-20 21:54:00,11.6,3.7,30.10,North,359,1.0,3.0,70,0.00,,---,0.00,VWS V14.01,2013-01-21 02:54:00,
2013-01-20 21:59:00,11.6,3.7,30.10,North,359,0.0,3.0,70,0.00,,---,0.00,VWS V14.01,2013-01-21 02:59:00,
2013-01-20 22:00:00,11.6,3.4,30.10,North,359,0.0,3.0,69,0.00,,---,0.00,VWS V14.01,2013-01-21 03:00:00,
2013-01-20 22:04:00,11.6,3.4,30.10,North,359,0.0,3.0,69,0.00,,---,0.00,VWS V14.01,2013-01-21 03:04:00,
2013-01-20 22:09:00,11.6,3.4,30.10,NNW,342,1.0,4.0,69,0.00,,---,0.00,VWS V14.01,2013-01-21 03:09:00,
2013-01-20 22:10:00,11.6,3.4,30.10,NNW,342,2.0,4.0,69,0.00,,---,0.00,VWS V14.01,2013-01-21 03:10:00,
2013-01-20 22:14:00,11.8,3.3,30.10,NW,315,3.0,6.0,68,0.00,,---,0.00,VWS V14.01,2013-01-21 03:14:00,
2013-01-20 22:19:00,12.0,3.8,30.10,North,350,1.0,6.0,69,0.00,,---,0.00,VWS V14.01,2013-01-21 03:19:00,
2013-01-20 22:20:00,12.0,3.8,30.09,North,350,2.0,6.0,69,0.00,,---,0.00,VWS V14.01,2013-01-21 03:20:00,
2013-01-20 22:24:00,12.0,4.1,30.09,North,350,3.0,3.0,70,0.00,,---,0.00,VWS V14.01,2013-01-21 03:24:00,
2013-01-20 22:29:00,12.0,4.1,30.09,North,350,1.0,4.0,70,0.00,,---,0.00,VWS V14.01,2013-01-21 03:29:00,
2013-01-20 22:30:00,12.0,4.1,30.09,North,350,0.0,4.0,70,0.00,,---,0.00,VWS V14.01,2013-01-21 03:30:00,
2013-01-20 22:34:00,12.0,4.4,30.09,North,350,1.0,4.0,71,0.00,,---,0.00,VWS V14.01,2013-01-21 03:34:00,
2013-01-20 22:39:00,12.0,4.7,30.09,North,350,1.0,4.0,72,0.00,,---,0.00,VWS V14.01,2013-01-21 03:39:00,
2013-01-20 22:40:00,11.9,4.6,30.09,North,350,0.0,4.0,72,0.00,,---,0.00,VWS V14.01,2013-01-21 03:40:00,
2013-01-20 22:44:00,11.8,4.5,30.09,NW,324,1.0,4.0,72,0.00,,---,0.00,VWS V14.01,2013-01-21 03:44:00,
2013-01-20 22:49:00,11.8,4.8,30.09,SSW,203,0.0,4.0,73,0.00,,---,0.00,VWS V14.01,2013-01-21 03:49:00,
2013-01-20 22:50:00,11.8,4.8,30.09,SSW,203,1.0,4.0,73,0.00,,---,0.00,VWS V14.01,2013-01-21 03:50:00,
2013-01-20 22:54:00,11.6,4.6,30.09,SSW,203,1.0,3.0,73,0.00,,---,0.00,VWS V14.01,2013-01-21 03:54:00,
2013-01-20 22:59:00,11.6,4.9,30.09,SSW,203,2.0,4.0,74,0.00,,---,0.00,VWS V14.01,2013-01-21 03:59:00,
2013-01-20 23:00:00,11.6,4.9,30.09,SSW,203,3.0,4.0,74,0.00,,---,0.00,VWS V14.01,2013-01-21 04:00:00,
2013-01-20 23:04:00,11.6,5.2,30.09,SSW,203,1.0,3.0,75,0.00,,---,0.00,VWS V14.01,2013-01-21 04:04:00,
2013-01-20 23:09:00,11.5,5.1,30.08,SSW,203,1.0,3.0,75,0.00,,---,0.00,VWS V14.01,2013-01-21 04:09:00,
2013-01-20 23:10:00,11.5,5.1,30.08,SSW,203,1.0,3.0,75,0.00,,---,0.00,VWS V14.01,2013-01-21 04:10:00,
2013-01-20 23:14:00,11.5,5.4,30.08,SSW,203,2.0,3.0,76,0.00,,---,0.00,VWS V14.01,2013-01-21 04:14:00,
2013-01-20 23:19:00,11.5,5.4,30.08,SSW,203,2.0,3.0,76,0.00,,---,0.00,VWS V14.01,2013-01-21 04:19:00,
2013-01-20 23:20:00,11.5,5.4,30.08,SSW,203,0.0,3.0,76,0.00,,---,0.00,VWS V14.01,2013-01-21 04:20:00,
2013-01-20 23:24:00,11.5,5.4,30.07,SSW,203,1.0,2.0,76,0.00,,---,0.00,VWS V14.01,2013-01-21 04:24:00,
2013-01-20 23:29:00,11.3,5.2,30.07,SSW,203,0.0,2.0,76,0.00,,---,0.00,VWS V14.01,2013-01-21 04:29:00,
2013-01-20 23:30:00,11.3,5.2,30.07,SSW,203,0.0,2.0,76,0.00,,---,0.00,VWS V14.01,2013-01-21 04:30:00,
2013-01-20 23:34:00,11.3,5.5,30.07,SSW,203,0.0,2.0,77,0.00,,---,0.00,VWS V14.01,2013-01-21 04:34:00,
2013-01-20 23:39:00,11.2,5.4,30.07,SSW,203,1.0,3.0,77,0.00,,---,0.00,VWS V14.01,2013-01-21 04:39:00,
2013-01-20 23:40:00,11.1,5.3,30.07,SSW,203,3.0,3.0,77,0.00,,---,0.00,VWS V14.01,2013-01-21 04:40:00,
2013-01-20 23:44:00,11.1,5.6,30.07,SSW,203,1.0,4.0,78,0.00,,---,0.00,VWS V14.01,2013-01-21 04:44:00,
2013-01-20 23:49:00,11.1,5.6,30.07,SSW,203,1.0,4.0,78,0.00,,---,0.00,VWS V14.01,2013-01-21 04:49:00,
2013-01-20 23:50:00,11.2,5.7,30.07,SSW,202,1.0,4.0,78,0.00,,---,0.00,VWS V14.01,2013-01-21 04:50:00,
2013-01-20 23:54:00,11.1,5.6,30.06,SSW,203,2.0,4.0,78,0.00,,---,0.00,VWS V14.01,2013-01-21 04:54:00,
2013-01-20 23:59:00,11.3,5.8,30.06,SSW,203,1.0,4.0,78,0.00,,---,0.00,VWS V14.01,2013-01-21 04:59:00,